createdAt,value
2018-06-15T01:31:45.801Z,1014.67
2018-06-15T01:31:46.305Z,1014.67
2018-06-15T01:31:46.903Z,1014.68
2018-06-15T01:31:47.504Z,1014.71
2018-06-15T01:31:48.103Z,1014.69
2018-06-15T01:31:48.704Z,1014.67
2018-06-15T01:31:49.303Z,1014.71
2018-06-15T01:31:49.902Z,1014.68
2018-06-15T01:32:43.455Z,1014.67
2018-06-15T01:32:44.028Z,1014.68
2018-06-15T01:32:44.624Z,1014.66
2018-06-15T01:32:45.226Z,1014.65
2018-06-15T01:32:45.825Z,1014.65
2018-06-15T01:32:46.425Z,1014.68
2018-06-15T01:32:47.024Z,1014.66
2018-06-15T01:32:47.625Z,1014.68
2018-06-15T01:33:42.137Z,1014.67
2018-06-15T01:33:42.705Z,1014.66
2018-06-15T01:33:43.302Z,1014.69
2018-06-15T01:33:43.902Z,1014.65
2018-06-15T01:33:44.503Z,1014.68
2018-06-15T01:33:45.103Z,1014.69
2018-06-15T01:33:45.702Z,1014.67
2018-06-15T01:33:46.301Z,1014.67
2018-06-15T01:34:39.781Z,1014.65
2018-06-15T01:34:40.359Z,1014.60
2018-06-15T01:34:40.952Z,1014.61
2018-06-15T01:34:41.552Z,1014.63
2018-06-15T01:34:42.152Z,1014.66
2018-06-15T01:34:42.752Z,1014.64
2018-06-15T01:34:43.352Z,1014.66
2018-06-15T01:34:43.952Z,1014.67
2018-06-15T01:35:38.462Z,1014.64
2018-06-15T01:35:39.032Z,1014.62
2018-06-15T01:35:39.630Z,1014.65
2018-06-15T01:35:40.230Z,1014.64
2018-06-15T01:35:40.832Z,1014.65
2018-06-15T01:35:41.431Z,1014.62
2018-06-15T01:35:42.030Z,1014.63
2018-06-15T01:35:42.629Z,1014.65
2018-06-15T01:36:36.112Z,1014.62
2018-06-15T01:36:36.683Z,1014.65
2018-06-15T01:36:37.282Z,1014.62
2018-06-15T01:36:37.883Z,1014.62
2018-06-15T01:36:38.485Z,1014.64
2018-06-15T01:36:39.083Z,1014.64
2018-06-15T01:36:39.683Z,1014.64
2018-06-15T01:36:40.282Z,1014.66
2018-06-15T01:37:33.770Z,1014.62
2018-06-15T01:37:34.335Z,1014.64
2018-06-15T01:37:34.935Z,1014.65
2018-06-15T01:37:35.534Z,1014.63
2018-06-15T01:37:36.137Z,1014.64
2018-06-15T01:37:36.735Z,1014.60
2018-06-15T01:37:37.334Z,1014.63
2018-06-15T01:37:37.934Z,1014.63
2018-06-15T01:38:32.440Z,1014.63
2018-06-15T01:38:33.010Z,1014.64
2018-06-15T01:38:33.612Z,1014.62
2018-06-15T01:38:34.210Z,1014.62
2018-06-15T01:38:34.810Z,1014.67
2018-06-15T01:38:35.410Z,1014.63
2018-06-15T01:38:36.011Z,1014.66
2018-06-15T01:38:36.609Z,1014.62
2018-06-15T01:39:30.091Z,1014.62
2018-06-15T01:39:30.663Z,1014.64
2018-06-15T01:39:31.264Z,1014.64
2018-06-15T01:39:31.862Z,1014.65
2018-06-15T01:39:32.462Z,1014.65
2018-06-15T01:39:33.064Z,1014.63
2018-06-15T01:39:33.668Z,1014.65
2018-06-15T01:39:34.299Z,1014.66
2018-06-15T01:40:28.766Z,1014.61
2018-06-15T01:40:29.339Z,1014.64
2018-06-15T01:40:29.938Z,1014.62
2018-06-15T01:40:30.538Z,1014.61
2018-06-15T01:40:31.138Z,1014.62
2018-06-15T01:40:31.736Z,1014.61
2018-06-15T01:40:32.338Z,1014.64
2018-06-15T01:40:32.938Z,1014.63
2018-06-15T01:41:26.419Z,1014.63
2018-06-15T01:41:26.990Z,1014.62
2018-06-15T01:41:27.595Z,1014.61
2018-06-15T01:41:28.190Z,1014.63
2018-06-15T01:41:28.790Z,1014.64
2018-06-15T01:41:29.390Z,1014.64
2018-06-15T01:41:29.989Z,1014.64
2018-06-15T01:41:30.590Z,1014.64
2018-06-15T01:42:24.071Z,1014.65
2018-06-15T01:42:24.643Z,1014.63
2018-06-15T01:42:25.242Z,1014.61
2018-06-15T01:42:25.843Z,1014.60
2018-06-15T01:42:26.443Z,1014.62
2018-06-15T01:42:27.042Z,1014.62
2018-06-15T01:42:27.642Z,1014.62
2018-06-15T01:42:28.240Z,1014.63
2018-06-15T01:43:21.724Z,1014.65
2018-06-15T01:43:22.295Z,1014.64
2018-06-15T01:43:22.896Z,1014.63
2018-06-15T01:43:23.493Z,1014.61
2018-06-15T01:43:24.095Z,1014.61
2018-06-15T01:43:24.694Z,1014.60
2018-06-15T01:43:25.294Z,1014.64
2018-06-15T01:43:25.893Z,1014.63
2018-06-15T01:44:19.374Z,1014.60
2018-06-15T01:44:19.946Z,1014.60
2018-06-15T01:44:20.547Z,1014.59
2018-06-15T01:44:21.147Z,1014.62
2018-06-15T01:44:21.749Z,1014.63
2018-06-15T01:44:22.348Z,1014.62
2018-06-15T01:44:22.947Z,1014.60
2018-06-15T01:44:23.547Z,1014.64
2018-06-15T01:45:17.027Z,1014.61
2018-06-15T01:45:17.597Z,1014.63
2018-06-15T01:45:18.200Z,1014.61
2018-06-15T01:45:18.798Z,1014.62
2018-06-15T01:45:19.399Z,1014.61
2018-06-15T01:45:19.997Z,1014.62
2018-06-15T01:45:20.599Z,1014.59
2018-06-15T01:45:21.201Z,1014.61
2018-06-15T01:46:15.703Z,1014.60
2018-06-15T01:46:16.273Z,1014.58
2018-06-15T01:46:16.872Z,1014.61
2018-06-15T01:46:17.473Z,1014.61
2018-06-15T01:46:18.074Z,1014.63
2018-06-15T01:46:18.673Z,1014.59
2018-06-15T01:46:19.273Z,1014.60
2018-06-15T01:46:19.873Z,1014.60
2018-06-15T01:47:14.379Z,1014.61
2018-06-15T01:47:14.950Z,1014.59
2018-06-15T01:47:15.550Z,1014.57
2018-06-15T01:47:16.149Z,1014.61
2018-06-15T01:47:16.748Z,1014.61
2018-06-15T01:47:17.350Z,1014.59
2018-06-15T01:47:17.949Z,1014.60
2018-06-15T01:47:18.548Z,1014.61
2018-06-15T01:48:12.030Z,1014.58
2018-06-15T01:48:12.604Z,1014.58
2018-06-15T01:48:13.208Z,1014.59
2018-06-15T01:48:13.803Z,1014.60
2018-06-15T01:48:14.402Z,1014.59
2018-06-15T01:48:15.003Z,1014.59
2018-06-15T01:48:15.602Z,1014.61
2018-06-15T01:48:16.201Z,1014.60
2018-06-15T01:49:10.706Z,1014.59
2018-06-15T01:49:11.277Z,1014.60
2018-06-15T01:49:11.878Z,1014.60
2018-06-15T01:49:12.480Z,1014.59
2018-06-15T01:49:13.076Z,1014.58
2018-06-15T01:49:13.676Z,1014.60
2018-06-15T01:49:14.278Z,1014.59
2018-06-15T01:49:14.876Z,1014.61
2018-06-15T01:50:09.382Z,1014.59
2018-06-15T01:50:09.953Z,1014.58
2018-06-15T01:50:10.554Z,1014.59
2018-06-15T01:50:11.153Z,1014.61
2018-06-15T01:50:11.758Z,1014.60
2018-06-15T01:50:12.353Z,1014.58
2018-06-15T01:50:12.952Z,1014.59
2018-06-15T01:50:13.551Z,1014.57
2018-06-15T01:51:08.056Z,1014.60
2018-06-15T01:51:08.629Z,1014.61
2018-06-15T01:51:09.228Z,1014.59
2018-06-15T01:51:09.828Z,1014.61
2018-06-15T01:51:10.428Z,1014.59
2018-06-15T01:51:11.028Z,1014.61
2018-06-15T01:51:11.627Z,1014.58
2018-06-15T01:51:12.232Z,1014.62
2018-06-15T01:52:05.709Z,1014.64
2018-06-15T01:52:06.281Z,1014.63
2018-06-15T01:52:06.884Z,1014.61
2018-06-15T01:52:07.482Z,1014.62
2018-06-15T01:52:08.080Z,1014.62
2018-06-15T01:52:08.680Z,1014.63
2018-06-15T01:52:09.284Z,1014.63
2018-06-15T01:52:09.880Z,1014.64
2018-06-15T01:53:03.360Z,1014.63
2018-06-15T01:53:03.933Z,1014.64
2018-06-15T01:53:04.532Z,1014.61
2018-06-15T01:53:05.138Z,1014.64
2018-06-15T01:53:05.735Z,1014.60
2018-06-15T01:53:06.331Z,1014.63
2018-06-15T01:53:06.930Z,1014.63
2018-06-15T01:53:07.531Z,1014.62
2018-06-15T01:54:02.035Z,1014.63
2018-06-15T01:54:02.608Z,1014.65
2018-06-15T01:54:03.207Z,1014.61
2018-06-15T01:54:03.807Z,1014.61
2018-06-15T01:54:04.409Z,1014.62
2018-06-15T01:54:05.007Z,1014.59
2018-06-15T01:54:05.610Z,1014.62
2018-06-15T01:54:06.207Z,1014.59
2018-06-15T01:54:59.687Z,1014.59
2018-06-15T01:55:00.260Z,1014.62
2018-06-15T01:55:00.864Z,1014.61
2018-06-15T01:55:01.463Z,1014.61
2018-06-15T01:55:02.063Z,1014.59
2018-06-15T01:55:02.660Z,1014.60
2018-06-15T01:55:03.259Z,1014.60
2018-06-15T01:55:03.861Z,1014.60
2018-06-15T01:55:57.343Z,1014.57
2018-06-15T01:55:57.912Z,1014.57
2018-06-15T01:55:58.512Z,1014.58
2018-06-15T01:55:59.112Z,1014.59
2018-06-15T01:55:59.715Z,1014.58
2018-06-15T01:56:00.311Z,1014.57
2018-06-15T01:56:00.912Z,1014.56
2018-06-15T01:56:01.514Z,1014.57
2018-06-15T01:56:56.014Z,1014.57
2018-06-15T01:56:56.587Z,1014.55
2018-06-15T01:56:57.186Z,1014.57
2018-06-15T01:56:57.785Z,1014.59
2018-06-15T01:56:58.385Z,1014.59
2018-06-15T01:56:58.986Z,1014.59
2018-06-15T01:56:59.585Z,1014.58
2018-06-15T01:57:00.186Z,1014.62
2018-06-15T01:57:53.671Z,1014.56
2018-06-15T01:57:54.237Z,1014.55
2018-06-15T01:57:54.844Z,1014.52
2018-06-15T01:57:55.439Z,1014.56
2018-06-15T01:57:56.038Z,1014.55
2018-06-15T01:57:56.638Z,1014.56
2018-06-15T01:57:57.239Z,1014.57
2018-06-15T01:57:57.837Z,1014.55
2018-06-15T01:58:51.318Z,1014.56
2018-06-15T01:58:51.891Z,1014.58
2018-06-15T01:58:52.492Z,1014.55
2018-06-15T01:58:53.092Z,1014.57
2018-06-15T01:58:53.690Z,1014.55
2018-06-15T01:58:54.291Z,1014.57
2018-06-15T01:58:54.891Z,1014.56
2018-06-15T01:58:55.490Z,1014.57
2018-06-15T01:59:48.970Z,1014.55
2018-06-15T01:59:49.543Z,1014.59
2018-06-15T01:59:50.145Z,1014.52
2018-06-15T01:59:50.743Z,1014.53
2018-06-15T01:59:51.342Z,1014.54
2018-06-15T01:59:51.943Z,1014.56
2018-06-15T01:59:52.541Z,1014.56
2018-06-15T01:59:53.143Z,1014.56
2018-06-15T02:00:46.622Z,1014.58
2018-06-15T02:00:47.194Z,1014.56
2018-06-15T02:00:47.796Z,1014.56
2018-06-15T02:00:48.395Z,1014.55
2018-06-15T02:00:48.994Z,1014.56
2018-06-15T02:00:49.594Z,1014.59
2018-06-15T02:00:50.194Z,1014.56
2018-06-15T02:00:50.793Z,1014.56
2018-06-15T02:01:44.278Z,1014.58
2018-06-15T02:01:44.845Z,1014.56
2018-06-15T02:01:45.446Z,1014.58
2018-06-15T02:01:46.051Z,1014.59
2018-06-15T02:01:46.645Z,1014.59
2018-06-15T02:01:47.245Z,1014.61
2018-06-15T02:01:47.845Z,1014.57
2018-06-15T02:01:48.445Z,1014.61
2018-06-15T02:02:41.925Z,1014.56
2018-06-15T02:02:42.498Z,1014.57
2018-06-15T02:02:43.099Z,1014.58
2018-06-15T02:02:43.697Z,1014.60
2018-06-15T02:02:44.297Z,1014.60
2018-06-15T02:02:44.898Z,1014.58
2018-06-15T02:02:45.497Z,1014.58
2018-06-15T02:02:46.096Z,1014.59
2018-06-15T02:03:40.600Z,1014.59
2018-06-15T02:03:41.174Z,1014.62
2018-06-15T02:03:41.777Z,1014.56
2018-06-15T02:03:42.373Z,1014.58
2018-06-15T02:03:42.972Z,1014.56
2018-06-15T02:03:43.571Z,1014.60
2018-06-15T02:03:44.171Z,1014.58
2018-06-15T02:03:44.771Z,1014.58
2018-06-15T02:04:38.254Z,1014.58
2018-06-15T02:04:38.824Z,1014.63
2018-06-15T02:04:39.427Z,1014.62
2018-06-15T02:04:40.026Z,1014.60
2018-06-15T02:04:40.627Z,1014.61
2018-06-15T02:04:41.228Z,1014.55
2018-06-15T02:04:41.824Z,1014.57
2018-06-15T02:04:42.424Z,1014.62
2018-06-15T02:05:35.908Z,1014.59
2018-06-15T02:05:36.476Z,1014.58
2018-06-15T02:05:37.077Z,1014.61
2018-06-15T02:05:37.677Z,1014.60
2018-06-15T02:05:38.275Z,1014.62
2018-06-15T02:05:38.877Z,1014.61
2018-06-15T02:05:39.476Z,1014.61
2018-06-15T02:05:40.076Z,1014.61
2018-06-15T02:06:34.582Z,1014.63
2018-06-15T02:06:35.152Z,1014.61
2018-06-15T02:06:35.751Z,1014.61
2018-06-15T02:06:36.354Z,1014.63
2018-06-15T02:06:36.951Z,1014.63
2018-06-15T02:06:37.551Z,1014.65
2018-06-15T02:06:38.151Z,1014.61
2018-06-15T02:06:38.753Z,1014.59
2018-06-15T02:07:32.232Z,1014.62
2018-06-15T02:07:32.808Z,1014.63
2018-06-15T02:07:33.408Z,1014.64
2018-06-15T02:07:34.010Z,1014.64
2018-06-15T02:07:34.604Z,1014.63
2018-06-15T02:07:35.204Z,1014.63
2018-06-15T02:07:35.804Z,1014.64
2018-06-15T02:07:36.407Z,1014.63
2018-06-15T02:08:30.906Z,1014.62
2018-06-15T02:08:31.478Z,1014.64
2018-06-15T02:08:32.082Z,1014.62
2018-06-15T02:08:32.678Z,1014.62
2018-06-15T02:08:33.279Z,1014.63
2018-06-15T02:08:33.878Z,1014.65
2018-06-15T02:08:34.478Z,1014.63
2018-06-15T02:08:35.078Z,1014.65
2018-06-15T02:09:29.585Z,1014.67
2018-06-15T02:09:30.169Z,1014.65
2018-06-15T02:09:30.753Z,1014.65
2018-06-15T02:09:31.355Z,1014.65
2018-06-15T02:09:31.952Z,1014.63
2018-06-15T02:09:32.553Z,1014.62
2018-06-15T02:09:33.160Z,1014.62
2018-06-15T02:09:33.756Z,1014.66
2018-06-15T02:10:28.257Z,1014.63
2018-06-15T02:10:28.831Z,1014.66
2018-06-15T02:10:29.435Z,1014.66
2018-06-15T02:10:30.030Z,1014.63
2018-06-15T02:10:30.631Z,1014.63
2018-06-15T02:10:31.231Z,1014.64
2018-06-15T02:10:31.829Z,1014.66
2018-06-15T02:10:32.429Z,1014.65
2018-06-15T02:11:26.935Z,1014.64
2018-06-15T02:11:27.506Z,1014.64
2018-06-15T02:11:28.110Z,1014.64
2018-06-15T02:11:28.708Z,1014.64
2018-06-15T02:11:29.306Z,1014.67
2018-06-15T02:11:29.905Z,1014.62
2018-06-15T02:11:30.507Z,1014.65
2018-06-15T02:11:31.106Z,1014.64
2018-06-15T02:12:25.608Z,1014.66
2018-06-15T02:12:26.182Z,1014.66
2018-06-15T02:12:26.782Z,1014.65
2018-06-15T02:12:27.383Z,1014.65
2018-06-15T02:12:27.982Z,1014.65
2018-06-15T02:12:28.583Z,1014.64
2018-06-15T02:12:29.181Z,1014.62
2018-06-15T02:12:29.780Z,1014.65
2018-06-15T02:13:24.290Z,1014.65
2018-06-15T02:13:24.909Z,1014.67
2018-06-15T02:13:25.484Z,1014.66
2018-06-15T02:13:26.100Z,1014.65
2018-06-15T02:13:26.665Z,1014.65
2018-06-15T02:13:27.279Z,1014.64
2018-06-15T02:13:27.880Z,1014.63
2018-06-15T02:13:28.492Z,1014.65
2018-06-15T02:14:21.939Z,1014.66
2018-06-15T02:14:22.512Z,1014.66
2018-06-15T02:14:23.127Z,1014.67
2018-06-15T02:14:23.711Z,1014.66
2018-06-15T02:14:24.311Z,1014.66
2018-06-15T02:14:24.910Z,1014.67
2018-06-15T02:14:25.511Z,1014.65
2018-06-15T02:14:26.110Z,1014.68
2018-06-15T02:15:20.612Z,1014.64
2018-06-15T02:15:21.185Z,1014.64
2018-06-15T02:15:21.785Z,1014.64
2018-06-15T02:15:22.384Z,1014.62
2018-06-15T02:15:22.985Z,1014.63
2018-06-15T02:15:23.583Z,1014.60
2018-06-15T02:15:24.184Z,1014.63
2018-06-15T02:15:24.785Z,1014.65
2018-06-15T02:16:18.266Z,1014.65
2018-06-15T02:16:18.837Z,1014.60
2018-06-15T02:16:19.439Z,1014.61
2018-06-15T02:16:20.038Z,1014.59
2018-06-15T02:16:20.637Z,1014.59
2018-06-15T02:16:21.238Z,1014.60
2018-06-15T02:16:21.838Z,1014.62
2018-06-15T02:16:22.438Z,1014.65
2018-06-15T02:17:16.940Z,1014.69
2018-06-15T02:17:17.514Z,1014.62
2018-06-15T02:17:18.119Z,1014.64
2018-06-15T02:17:18.716Z,1014.65
2018-06-15T02:17:19.313Z,1014.64
2018-06-15T02:17:19.913Z,1014.62
2018-06-15T02:17:20.512Z,1014.65
2018-06-15T02:17:21.113Z,1014.61
2018-06-15T02:18:15.615Z,1014.66
2018-06-15T02:18:16.190Z,1014.62
2018-06-15T02:18:16.789Z,1014.61
2018-06-15T02:18:17.391Z,1014.67
2018-06-15T02:18:17.989Z,1014.61
2018-06-15T02:18:18.587Z,1014.67
2018-06-15T02:18:19.189Z,1014.64
2018-06-15T02:18:19.788Z,1014.65
2018-06-15T02:19:13.271Z,1014.63
2018-06-15T02:19:13.842Z,1014.61
2018-06-15T02:19:14.442Z,1014.62
2018-06-15T02:19:15.043Z,1014.64
2018-06-15T02:19:15.641Z,1014.63
2018-06-15T02:19:16.241Z,1014.63
2018-06-15T02:19:16.841Z,1014.63
2018-06-15T02:19:17.441Z,1014.64
2018-06-15T02:20:10.921Z,1014.61
2018-06-15T02:20:11.493Z,1014.62
2018-06-15T02:20:12.093Z,1014.63
2018-06-15T02:20:12.694Z,1014.62
2018-06-15T02:20:13.292Z,1014.64
2018-06-15T02:20:13.895Z,1014.64
2018-06-15T02:20:14.492Z,1014.67
2018-06-15T02:20:15.092Z,1014.63
2018-06-15T02:21:08.572Z,1014.65
2018-06-15T02:21:09.143Z,1014.63
2018-06-15T02:21:09.746Z,1014.65
2018-06-15T02:21:10.345Z,1014.63
2018-06-15T02:21:10.945Z,1014.66
2018-06-15T02:21:11.544Z,1014.66
2018-06-15T02:21:12.144Z,1014.65
2018-06-15T02:21:12.743Z,1014.61
2018-06-15T02:22:07.249Z,1014.65
2018-06-15T02:22:07.819Z,1014.66
2018-06-15T02:22:08.422Z,1014.66
2018-06-15T02:22:09.020Z,1014.67
2018-06-15T02:22:09.618Z,1014.66
2018-06-15T02:22:10.225Z,1014.64
2018-06-15T02:22:10.817Z,1014.65
2018-06-15T02:22:11.416Z,1014.64
2018-06-15T02:23:04.899Z,1014.67
2018-06-15T02:23:05.482Z,1014.63
2018-06-15T02:23:06.072Z,1014.69
2018-06-15T02:23:06.669Z,1014.68
2018-06-15T02:23:07.269Z,1014.70
2018-06-15T02:23:07.871Z,1014.67
2018-06-15T02:23:08.468Z,1014.68
2018-06-15T02:23:09.069Z,1014.68
2018-06-15T02:24:03.574Z,1014.69
2018-06-15T02:24:04.146Z,1014.69
2018-06-15T02:24:04.749Z,1014.70
2018-06-15T02:24:05.348Z,1014.72
2018-06-15T02:24:05.946Z,1014.69
2018-06-15T02:24:06.546Z,1014.72
2018-06-15T02:24:07.147Z,1014.72
2018-06-15T02:24:07.746Z,1014.73
2018-06-15T02:25:02.251Z,1014.72
2018-06-15T02:25:02.824Z,1014.71
2018-06-15T02:25:03.425Z,1014.71
2018-06-15T02:25:04.023Z,1014.71
2018-06-15T02:25:04.626Z,1014.72
2018-06-15T02:25:05.224Z,1014.72
2018-06-15T02:25:05.821Z,1014.70
2018-06-15T02:25:06.425Z,1014.72
2018-06-15T02:25:59.903Z,1014.74
2018-06-15T02:26:00.476Z,1014.72
2018-06-15T02:26:01.076Z,1014.70
2018-06-15T02:26:01.678Z,1014.73
2018-06-15T02:26:02.275Z,1014.72
2018-06-15T02:26:02.875Z,1014.73
2018-06-15T02:26:03.498Z,1014.71
2018-06-15T02:26:04.075Z,1014.71
2018-06-15T02:26:58.578Z,1014.75
2018-06-15T02:26:59.150Z,1014.73
2018-06-15T02:26:59.754Z,1014.74
2018-06-15T02:27:00.350Z,1014.78
2018-06-15T02:27:00.951Z,1014.71
2018-06-15T02:27:01.553Z,1014.72
2018-06-15T02:27:02.150Z,1014.74
2018-06-15T02:27:02.750Z,1014.75
2018-06-15T02:27:57.253Z,1014.73
2018-06-15T02:27:57.825Z,1014.76
2018-06-15T02:27:58.428Z,1014.76
2018-06-15T02:27:59.026Z,1014.75
2018-06-15T02:27:59.624Z,1014.78
2018-06-15T02:28:00.225Z,1014.76
2018-06-15T02:28:00.825Z,1014.78
2018-06-15T02:28:01.430Z,1014.77
2018-06-15T02:28:55.929Z,1014.76
2018-06-15T02:28:56.500Z,1014.73
2018-06-15T02:28:57.105Z,1014.78
2018-06-15T02:28:57.702Z,1014.76
2018-06-15T02:28:58.299Z,1014.74
2018-06-15T02:28:58.898Z,1014.76
2018-06-15T02:28:59.499Z,1014.75
2018-06-15T02:29:00.098Z,1014.76
2018-06-15T02:29:54.605Z,1014.78
2018-06-15T02:29:55.177Z,1014.78
2018-06-15T02:29:55.785Z,1014.81
2018-06-15T02:29:56.378Z,1014.76
2018-06-15T02:29:56.976Z,1014.78
2018-06-15T02:29:57.576Z,1014.79
2018-06-15T02:29:58.176Z,1014.76
2018-06-15T02:29:58.777Z,1014.78
2018-06-15T02:30:53.282Z,1014.78
2018-06-15T02:30:53.853Z,1014.78
2018-06-15T02:30:54.455Z,1014.78
2018-06-15T02:30:55.054Z,1014.77
2018-06-15T02:30:55.653Z,1014.78
2018-06-15T02:30:56.252Z,1014.78
2018-06-15T02:30:56.854Z,1014.80
2018-06-15T02:30:57.452Z,1014.81
2018-06-15T02:31:51.956Z,1014.79
2018-06-15T02:31:52.531Z,1014.78
2018-06-15T02:31:53.131Z,1014.80
2018-06-15T02:31:53.730Z,1014.79
2018-06-15T02:31:54.332Z,1014.76
2018-06-15T02:31:54.927Z,1014.80
2018-06-15T02:31:55.527Z,1014.78
2018-06-15T02:31:56.126Z,1014.80
2018-06-15T02:32:50.634Z,1014.82
2018-06-15T02:32:51.205Z,1014.81
2018-06-15T02:32:51.806Z,1014.82
2018-06-15T02:32:52.408Z,1014.82
2018-06-15T02:32:53.002Z,1014.80
2018-06-15T02:32:53.602Z,1014.80
2018-06-15T02:32:54.203Z,1014.81
2018-06-15T02:32:54.802Z,1014.80
2018-06-15T02:33:48.286Z,1014.83
2018-06-15T02:33:48.856Z,1014.81
2018-06-15T02:33:49.457Z,1014.81
2018-06-15T02:33:50.057Z,1014.80
2018-06-15T02:33:50.657Z,1014.79
2018-06-15T02:33:51.257Z,1014.77
2018-06-15T02:33:51.856Z,1014.81
2018-06-15T02:33:52.460Z,1014.80
2018-06-15T02:34:46.960Z,1014.82
2018-06-15T02:34:47.531Z,1014.84
2018-06-15T02:34:48.133Z,1014.84
2018-06-15T02:34:48.732Z,1014.80
2018-06-15T02:34:49.331Z,1014.83
2018-06-15T02:34:49.931Z,1014.77
2018-06-15T02:34:50.533Z,1014.81
2018-06-15T02:34:51.129Z,1014.81
2018-06-15T02:35:44.612Z,1014.81
2018-06-15T02:35:45.183Z,1014.78
2018-06-15T02:35:45.784Z,1014.80
2018-06-15T02:35:46.383Z,1014.79
2018-06-15T02:35:46.989Z,1014.83
2018-06-15T02:35:47.585Z,1014.81
2018-06-15T02:35:48.182Z,1014.82
2018-06-15T02:35:48.783Z,1014.81
2018-06-15T02:36:43.286Z,1014.80
2018-06-15T02:36:43.863Z,1014.76
2018-06-15T02:36:44.458Z,1014.80
2018-06-15T02:36:45.059Z,1014.82
2018-06-15T02:36:45.658Z,1014.81
2018-06-15T02:36:46.256Z,1014.80
2018-06-15T02:36:46.857Z,1014.81
2018-06-15T02:36:47.457Z,1014.81
2018-06-15T02:37:41.963Z,1014.79
2018-06-15T02:37:42.542Z,1014.83
2018-06-15T02:37:43.135Z,1014.77
2018-06-15T02:37:43.734Z,1014.80
2018-06-15T02:37:44.333Z,1014.81
2018-06-15T02:37:44.938Z,1014.75
2018-06-15T02:37:45.534Z,1014.80
2018-06-15T02:37:46.132Z,1014.80
2018-06-15T02:38:39.614Z,1014.78
2018-06-15T02:38:40.189Z,1014.80
2018-06-15T02:38:40.788Z,1014.76
2018-06-15T02:38:41.387Z,1014.72
2018-06-15T02:38:41.988Z,1014.78
2018-06-15T02:38:42.585Z,1014.75
2018-06-15T02:38:43.189Z,1014.73
2018-06-15T02:38:43.786Z,1014.78
2018-06-15T02:39:38.292Z,1014.80
2018-06-15T02:39:38.864Z,1014.78
2018-06-15T02:39:39.504Z,1014.78
2018-06-15T02:39:40.065Z,1014.77
2018-06-15T02:39:40.663Z,1014.80
2018-06-15T02:39:41.262Z,1014.77
2018-06-15T02:39:41.864Z,1014.76
2018-06-15T02:39:42.463Z,1014.76
2018-06-15T02:40:36.966Z,1014.76
2018-06-15T02:40:37.539Z,1014.77
2018-06-15T02:40:38.140Z,1014.79
2018-06-15T02:40:38.740Z,1014.77
2018-06-15T02:40:39.337Z,1014.80
2018-06-15T02:40:39.938Z,1014.79
2018-06-15T02:40:40.538Z,1014.76
2018-06-15T02:40:41.136Z,1014.80
2018-06-15T02:41:34.618Z,1014.77
2018-06-15T02:41:35.191Z,1014.76
2018-06-15T02:41:35.792Z,1014.78
2018-06-15T02:41:36.390Z,1014.80
2018-06-15T02:41:36.992Z,1014.79
2018-06-15T02:41:37.593Z,1014.80
2018-06-15T02:41:38.190Z,1014.81
2018-06-15T02:41:38.794Z,1014.81
2018-06-15T02:42:34.115Z,1014.80
2018-06-15T02:42:34.685Z,1014.82
2018-06-15T02:42:35.288Z,1014.79
2018-06-15T02:42:35.884Z,1014.84
2018-06-15T02:42:36.487Z,1014.82
2018-06-15T02:42:37.085Z,1014.80
2018-06-15T02:42:37.688Z,1014.78
2018-06-15T02:42:38.286Z,1014.82
2018-06-15T02:43:32.787Z,1014.82
2018-06-15T02:43:33.360Z,1014.83
2018-06-15T02:43:33.962Z,1014.76
2018-06-15T02:43:34.561Z,1014.80
2018-06-15T02:43:35.161Z,1014.80
2018-06-15T02:43:35.760Z,1014.83
2018-06-15T02:43:36.361Z,1014.81
2018-06-15T02:43:36.961Z,1014.82
2018-06-15T02:44:30.448Z,1014.81
2018-06-15T02:44:31.011Z,1014.82
2018-06-15T02:44:31.613Z,1014.80
2018-06-15T02:44:32.214Z,1014.82
2018-06-15T02:44:32.813Z,1014.81
2018-06-15T02:44:33.412Z,1014.79
2018-06-15T02:44:34.013Z,1014.81
2018-06-15T02:44:34.611Z,1014.80
2018-06-15T02:45:28.148Z,1014.83
2018-06-15T02:45:28.688Z,1014.79
2018-06-15T02:45:29.325Z,1014.81
2018-06-15T02:45:29.885Z,1014.77
2018-06-15T02:45:30.541Z,1014.81
2018-06-15T02:45:31.099Z,1014.78
2018-06-15T02:45:31.701Z,1014.79
2018-06-15T02:45:32.337Z,1014.79
2018-06-15T02:46:26.768Z,1014.84
2018-06-15T02:46:27.342Z,1014.81
2018-06-15T02:46:27.941Z,1014.82
2018-06-15T02:46:28.540Z,1014.78
2018-06-15T02:46:29.139Z,1014.80
2018-06-15T02:46:29.738Z,1014.83
2018-06-15T02:46:30.338Z,1014.80
2018-06-15T02:46:30.938Z,1014.82
2018-06-15T02:47:24.421Z,1014.81
2018-06-15T02:47:24.992Z,1014.80
2018-06-15T02:47:25.593Z,1014.81
2018-06-15T02:47:26.192Z,1014.83
2018-06-15T02:47:26.791Z,1014.78
2018-06-15T02:47:27.392Z,1014.80
2018-06-15T02:47:27.994Z,1014.82
2018-06-15T02:47:28.591Z,1014.81
2018-06-15T02:48:23.096Z,1014.81
2018-06-15T02:48:23.675Z,1014.81
2018-06-15T02:48:24.265Z,1014.80
2018-06-15T02:48:24.866Z,1014.81
2018-06-15T02:48:25.463Z,1014.83
2018-06-15T02:48:26.064Z,1014.82
2018-06-15T02:48:26.701Z,1014.81
2018-06-15T02:48:27.263Z,1014.80
2018-06-15T02:49:21.771Z,1014.82
2018-06-15T02:49:22.342Z,1014.81
2018-06-15T02:49:22.949Z,1014.83
2018-06-15T02:49:23.546Z,1014.82
2018-06-15T02:49:24.141Z,1014.81
2018-06-15T02:49:24.742Z,1014.81
2018-06-15T02:49:25.343Z,1014.84
2018-06-15T02:49:25.941Z,1014.81
2018-06-15T02:50:20.449Z,1014.79
2018-06-15T02:50:21.018Z,1014.81
2018-06-15T02:50:21.618Z,1014.82
2018-06-15T02:50:22.219Z,1014.83
2018-06-15T02:50:22.819Z,1014.83
2018-06-15T02:50:23.422Z,1014.84
2018-06-15T02:50:24.017Z,1014.82
2018-06-15T02:50:24.617Z,1014.84
2018-06-15T02:51:18.098Z,1014.85
2018-06-15T02:51:18.671Z,1014.90
2018-06-15T02:51:19.272Z,1014.84
2018-06-15T02:51:19.871Z,1014.92
2018-06-15T02:51:20.471Z,1014.92
2018-06-15T02:51:21.069Z,1014.84
2018-06-15T02:51:21.671Z,1014.89
2018-06-15T02:51:22.271Z,1014.87
2018-06-15T02:52:16.774Z,1014.89
2018-06-15T02:52:17.346Z,1014.90
2018-06-15T02:52:17.948Z,1014.89
2018-06-15T02:52:18.548Z,1014.89
2018-06-15T02:52:19.145Z,1014.91
2018-06-15T02:52:19.745Z,1014.86
2018-06-15T02:52:20.346Z,1014.87
2018-06-15T02:52:20.944Z,1014.92
2018-06-15T02:53:15.448Z,1014.86
2018-06-15T02:53:16.023Z,1014.87
2018-06-15T02:53:16.621Z,1014.91
2018-06-15T02:53:17.223Z,1014.91
2018-06-15T02:53:17.824Z,1014.90
2018-06-15T02:53:18.421Z,1014.89
2018-06-15T02:53:19.021Z,1014.93
2018-06-15T02:53:19.624Z,1014.89
2018-06-15T02:54:14.127Z,1014.87
2018-06-15T02:54:14.694Z,1014.88
2018-06-15T02:54:15.296Z,1014.91
2018-06-15T02:54:15.894Z,1014.92
2018-06-15T02:54:16.494Z,1014.89
2018-06-15T02:54:17.093Z,1014.88
2018-06-15T02:54:17.695Z,1014.89
2018-06-15T02:54:18.301Z,1014.89
2018-06-15T02:55:12.800Z,1014.88
2018-06-15T02:55:13.373Z,1014.89
2018-06-15T02:55:13.974Z,1014.91
2018-06-15T02:55:14.578Z,1014.91
2018-06-15T02:55:15.172Z,1014.89
2018-06-15T02:55:15.774Z,1014.88
2018-06-15T02:55:16.369Z,1014.90
2018-06-15T02:55:16.970Z,1014.93
2018-06-15T02:56:11.477Z,1014.97
2018-06-15T02:56:12.050Z,1014.93
2018-06-15T02:56:12.649Z,1014.93
2018-06-15T02:56:13.250Z,1014.96
2018-06-15T02:56:13.847Z,1014.95
2018-06-15T02:56:14.449Z,1014.95
2018-06-15T02:56:15.050Z,1014.96
2018-06-15T02:56:15.646Z,1014.95
2018-06-15T02:57:10.151Z,1014.95
2018-06-15T02:57:10.724Z,1014.94
2018-06-15T02:57:11.327Z,1014.93
2018-06-15T02:57:11.926Z,1014.94
2018-06-15T02:57:12.525Z,1014.90
2018-06-15T02:57:13.124Z,1014.94
2018-06-15T02:57:13.726Z,1014.93
2018-06-15T02:57:14.322Z,1014.91
2018-06-15T02:58:07.804Z,1014.93
2018-06-15T02:58:08.377Z,1014.95
2018-06-15T02:58:08.977Z,1014.95
2018-06-15T02:58:09.577Z,1014.93
2018-06-15T02:58:10.177Z,1014.96
2018-06-15T02:58:10.776Z,1014.95
2018-06-15T02:58:11.376Z,1014.96
2018-06-15T02:58:11.976Z,1014.94
2018-06-15T02:59:06.527Z,1014.98
2018-06-15T02:59:07.052Z,1014.96
2018-06-15T02:59:07.669Z,1014.97
2018-06-15T02:59:08.253Z,1014.92
2018-06-15T02:59:08.851Z,1014.97
2018-06-15T02:59:09.452Z,1014.93